createdAt,value
2023-03-01T00:01:40.406Z,1032.52
2023-03-01T00:11:45.759Z,1032.42
2023-03-01T00:21:50.775Z,1032.36
2023-03-01T00:31:56.168Z,1032.30
2023-03-01T00:42:01.678Z,1032.22
2023-03-01T00:52:07.155Z,1032.20
2023-03-01T01:02:12.571Z,1032.15
2023-03-01T01:12:17.289Z,1032.03
2023-03-01T01:22:22.110Z,1031.86
2023-03-01T01:32:27.512Z,1031.78
2023-03-01T01:42:33.122Z,1031.68
2023-03-01T01:52:38.238Z,1031.74
2023-03-01T02:02:43.549Z,1031.89
2023-03-01T02:12:49.075Z,1031.84
2023-03-01T02:22:54.376Z,1031.81
2023-03-01T02:33:00.106Z,1031.79
2023-03-01T02:43:05.305Z,1031.89
2023-03-01T02:53:10.506Z,1031.78
2023-03-01T03:03:16.027Z,1031.63
2023-03-01T03:13:21.525Z,1031.64
2023-03-01T03:23:27.106Z,1031.64
2023-03-01T03:33:32.462Z,1031.42
2023-03-01T03:43:37.640Z,1031.43
2023-03-01T03:53:42.968Z,1031.25
2023-03-01T04:03:48.416Z,1031.19
2023-03-01T04:13:53.934Z,1031.26
2023-03-01T04:23:59.153Z,1031.23
2023-03-01T04:34:04.743Z,1031.16
2023-03-01T04:44:10.137Z,1031.12
2023-03-01T04:54:15.277Z,1031.14
2023-03-01T05:04:20.691Z,1031.15
2023-03-01T05:14:26.145Z,1031.13
2023-03-01T05:24:31.495Z,1031.11
2023-03-01T05:34:36.794Z,1031.03
2023-03-01T05:44:42.018Z,1030.89
2023-03-01T05:54:47.479Z,1031.02
2023-03-01T06:04:53.087Z,1031.07
2023-03-01T06:14:58.805Z,1031.06
2023-03-01T06:25:04.328Z,1031.00
2023-03-01T06:35:11.807Z,1031.04
2023-03-01T06:45:17.329Z,1031.16
2023-03-01T06:55:22.676Z,1031.11
2023-03-01T07:05:27.761Z,1031.11
2023-03-01T07:15:32.630Z,1031.25
2023-03-01T07:25:37.856Z,1031.29
2023-03-01T07:35:43.197Z,1031.30
2023-03-01T07:45:48.316Z,1031.28
2023-03-01T07:55:54.111Z,1031.21
2023-03-01T08:05:59.726Z,1031.18
2023-03-01T08:16:05.214Z,1031.12
2023-03-01T08:26:10.417Z,1031.08
2023-03-01T08:36:15.492Z,1030.99
2023-03-01T08:46:20.831Z,1030.99
2023-03-01T08:56:25.998Z,1030.99
2023-03-01T09:06:31.493Z,1030.88
2023-03-01T09:16:36.954Z,1030.77
2023-03-01T09:26:42.625Z,1030.77
2023-03-01T09:36:47.669Z,1030.75
2023-03-01T09:46:52.956Z,1030.68
2023-03-01T09:56:58.061Z,1030.66
2023-03-01T10:07:03.318Z,1030.62
2023-03-01T10:17:08.609Z,1030.68
2023-03-01T10:27:14.351Z,1030.66
2023-03-01T10:37:19.297Z,1030.52
2023-03-01T10:47:24.887Z,1030.47
2023-03-01T10:57:30.212Z,1030.33
2023-03-01T11:07:34.980Z,1030.19
2023-03-01T11:17:53.513Z,1030.07
2023-03-01T11:27:50.198Z,1030.00
2023-03-01T11:37:55.813Z,1029.88
2023-03-01T11:48:02.409Z,1029.86
2023-03-01T11:58:08.422Z,1029.91
2023-03-01T12:08:13.619Z,1029.82
2023-03-01T12:18:19.123Z,1029.67
2023-03-01T12:28:24.607Z,1029.56
2023-03-01T12:38:30.028Z,1029.40
2023-03-01T12:48:35.408Z,1029.29
2023-03-01T12:58:49.649Z,1029.20
2023-03-01T13:08:51.124Z,1029.14
2023-03-01T13:18:58.375Z,1029.05
2023-03-01T13:29:03.737Z,1028.98
2023-03-01T13:39:09.092Z,1028.85
2023-03-01T13:49:14.361Z,1028.72
2023-03-01T13:59:19.693Z,1028.73
2023-03-01T14:09:25.102Z,1028.52
2023-03-01T14:19:33.659Z,1028.36
2023-03-01T14:29:39.606Z,1028.37
2023-03-01T14:39:45.054Z,1028.21
2023-03-01T14:49:50.449Z,1028.13
2023-03-01T14:59:55.850Z,1028.05
2023-03-01T15:10:02.310Z,1028.01
2023-03-01T15:20:08.477Z,1028.07
2023-03-01T15:30:13.839Z,1028.10
2023-03-01T15:40:19.643Z,1028.06
2023-03-01T15:50:25.126Z,1027.97
2023-03-01T16:00:30.743Z,1027.89
2023-03-01T16:10:36.369Z,1027.84
2023-03-01T16:20:41.463Z,1027.72
2023-03-01T16:30:47.376Z,1027.62
2023-03-01T16:40:52.817Z,1027.67
2023-03-01T16:50:57.951Z,1027.82
2023-03-01T17:01:03.442Z,1027.90
2023-03-01T17:11:08.708Z,1027.93
2023-03-01T17:21:15.225Z,1027.95
2023-03-01T17:31:20.903Z,1028.01
2023-03-01T17:41:26.475Z,1027.98
2023-03-01T17:51:32.517Z,1027.98
2023-03-01T18:01:38.212Z,1028.01
2023-03-01T18:11:45.645Z,1028.19
2023-03-01T18:21:52.155Z,1028.11
2023-03-01T18:31:57.439Z,1028.01
2023-03-01T18:42:03.003Z,1028.12
2023-03-01T18:52:08.154Z,1028.06
2023-03-01T19:02:13.641Z,1028.11
2023-03-01T19:12:19.155Z,1028.09
2023-03-01T19:22:24.594Z,1028.02
2023-03-01T19:32:29.916Z,1028.05
2023-03-01T19:42:35.327Z,1028.17
2023-03-01T19:52:40.649Z,1028.23
2023-03-01T20:02:46.115Z,1028.16
2023-03-01T20:12:51.607Z,1028.14
2023-03-01T20:22:57.188Z,1028.16
2023-03-01T20:33:02.306Z,1028.23
2023-03-01T20:43:07.554Z,1028.16
2023-03-01T20:53:12.994Z,1028.15
2023-03-01T21:03:18.083Z,1028.15
2023-03-01T21:13:23.541Z,1028.10
2023-03-01T21:23:29.517Z,1028.06
2023-03-01T21:33:35.248Z,1028.09
2023-03-01T21:43:40.700Z,1028.04
2023-03-01T21:53:46.169Z,1027.97
2023-03-01T22:03:51.383Z,1028.02
2023-03-01T22:13:56.601Z,1027.94
2023-03-01T22:24:02.105Z,1027.97
2023-03-01T22:34:07.688Z,1027.94
2023-03-01T22:44:13.284Z,1027.90
2023-03-01T22:54:19.191Z,1027.81
2023-03-01T23:04:24.302Z,1027.77
2023-03-01T23:14:29.563Z,1027.73
2023-03-01T23:24:35.026Z,1027.57
2023-03-01T23:34:40.630Z,1027.44
2023-03-01T23:44:46.126Z,1027.37
2023-03-01T23:54:51.355Z,1027.36
